Time;durP1;ratioP1;P1;durP2;ratioP2;P2;SDS_P1;SDS_P2;PMS_P1;PMS_P2;Temp;Humidity;BMP_temperature;BMP_pressure;BME280_temperature;BME280_humidity;BME280_pressure;Samples;Min_cycle;Max_cycle;Signal;HPM_P1;HPM_P2
2021/03/21 00:01:52;;;;;;;18.63;12.85;;;7.50;85.50;6.10;102358.00;;;;4960508;28;20046;-78
2021/03/21 00:04:18;;;;;;;21.45;14.30;;;7.10;84.40;6.10;102358.00;;;;4973247;28;20038;-79
2021/03/21 00:06:44;;;;;;;17.60;12.48;;;7.30;85.50;6.10;102356.00;;;;4957151;28;20105;-81
2021/03/21 00:09:13;;;;;;;23.05;15.52;;;7.20;85.60;6.20;102366.00;;;;4958904;28;20058;-79
2021/03/21 00:11:40;;;;;;;20.02;12.63;;;7.30;84.40;6.20;102342.00;;;;4959253;28;20062;-77
2021/03/21 00:14:07;;;;;;;20.50;13.47;;;7.20;85.30;6.20;102362.00;;;;4954612;28;20037;-81
2021/03/21 00:16:35;;;;;;;19.08;13.35;;;7.30;85.10;6.20;102371.00;;;;4954926;28;20037;-78
2021/03/21 00:19:06;;;;;;;22.00;14.60;;;7.30;85.40;6.20;102375.00;;;;4958202;28;20078;-80
2021/03/21 00:21:32;;;;;;;19.33;13.10;;;7.30;85.40;6.20;102378.00;;;;4955576;28;20039;-79
2021/03/21 00:23:58;;;;;;;15.55;10.77;;;7.30;85.30;6.20;102382.00;;;;4958234;28;20871;-77
2021/03/21 00:26:24;;;;;;;21.15;12.35;;;7.30;85.10;6.20;102361.00;;;;4977746;28;20081;-77
2021/03/21 00:28:50;;;;;;;20.50;12.45;;;7.30;85.40;6.30;102365.00;;;;4960281;28;20049;-78
2021/03/21 00:31:17;;;;;;;14.98;9.80;;;7.30;85.30;6.20;102353.00;;;;4957638;28;20063;-77
2021/03/21 00:33:44;;;;;;;13.60;8.60;;;7.30;85.10;6.10;102351.00;;;;4969678;28;20150;-78
2021/03/21 00:36:14;;;;;;;11.27;7.75;;;8.00;86.00;6.10;102353.00;;;;4957642;28;20302;-79
2021/03/21 00:38:53;;;;;;;9.48;6.43;;;7.20;85.60;6.00;102346.00;;;;4954493;28;20043;-79
2021/03/21 00:41:27;;;;;;;14.27;8.20;;;7.20;84.70;6.10;102355.00;;;;4959568;28;20488;-79
2021/03/21 00:43:55;;;;;;;13.73;8.38;;;7.10;85.70;6.10;102351.00;;;;4962077;28;20047;-78
2021/03/21 00:46:24;;;;;;;12.95;8.82;;;7.20;86.00;6.10;102347.00;;;;4972635;28;20075;-77
2021/03/21 00:48:50;;;;;;;18.40;10.02;;;7.30;86.00;6.10;102353.00;;;;4970832;28;20513;-77
2021/03/21 00:51:17;;;;;;;12.68;9.13;;;7.20;85.80;6.10;102349.00;;;;4957690;28;20055;-78
2021/03/21 00:53:44;;;;;;;17.02;9.32;;;7.10;85.10;6.10;102349.00;;;;4952487;28;20054;-80
2021/03/21 00:56:29;;;;;;;14.07;9.27;;;7.20;85.30;6.10;102335.00;;;;4958935;28;20050;-78
2021/03/21 00:58:58;;;;;;;13.90;8.20;;;7.20;85.70;6.10;102320.00;;;;4971850;28;20050;-77
2021/03/21 01:01:24;;;;;;;11.45;7.57;;;7.20;86.30;6.10;102323.00;;;;4956307;28;20705;-78
2021/03/21 01:03:50;;;;;;;12.90;8.50;;;7.30;85.90;6.10;102324.00;;;;4960782;28;20448;-79
2021/03/21 01:06:17;;;;;;;11.90;6.93;;;7.20;85.20;6.10;102320.00;;;;4966820;28;21397;-79
2021/03/21 01:08:43;;;;;;;11.13;6.68;;;7.20;85.90;6.10;102309.00;;;;4970266;28;20497;-79
2021/03/21 01:11:25;;;;;;;7.90;5.50;;;7.20;85.80;6.10;102294.00;;;;4970865;28;20047;-78
2021/03/21 01:13:52;;;;;;;8.68;6.15;;;7.20;86.60;6.10;102290.00;;;;4970324;28;20205;-77
2021/03/21 01:16:26;;;;;;;10.50;6.53;;;7.20;86.20;6.00;102281.00;;;;4981824;28;20098;-76
2021/03/21 01:18:53;;;;;;;9.00;6.20;;;7.20;86.00;6.10;102291.00;;;;4972212;28;20536;-78
2021/03/21 01:21:22;;;;;;;9.93;6.60;;;7.20;86.00;6.00;102274.00;;;;4971150;28;20047;-77
2021/03/21 01:23:48;;;;;;;8.43;6.05;;;7.20;86.30;6.10;102286.00;;;;4966349;28;20050;-77
2021/03/21 01:26:18;;;;;;;10.32;6.78;;;7.20;85.80;6.10;102282.00;;;;4969766;28;20039;-77
2021/03/21 01:28:44;;;;;;;9.07;5.85;;;7.20;86.00;6.10;102271.00;;;;4963074;28;20047;-77
2021/03/21 01:31:15;;;;;;;11.25;6.00;;;7.20;86.40;6.00;102262.00;;;;4985412;28;20042;-78
2021/03/21 01:33:42;;;;;;;10.65;6.40;;;7.20;85.40;6.10;102260.00;;;;4982069;28;20082;-78
2021/03/21 01:36:25;;;;;;;10.82;6.18;;;7.10;85.00;6.00;102270.00;;;;4969924;28;20190;-78
2021/03/21 01:38:52;;;;;;;8.70;5.38;;;7.20;86.50;6.10;102275.00;;;;4969738;28;20130;-79
2021/03/21 01:41:31;;;;;;;8.75;6.13;;;7.20;86.10;6.00;102267.00;;;;4953784;28;20126;-79
2021/03/21 01:43:57;;;;;;;8.05;5.25;;;7.20;86.20;6.10;102268.00;;;;4948217;28;20051;-78
2021/03/21 01:46:33;;;;;;;8.55;4.85;;;7.10;86.50;6.00;102262.00;;;;4963281;28;20043;-78
2021/03/21 01:49:12;;;;;;;8.15;5.90;;;7.20;86.10;6.00;102252.00;;;;4964057;28;20192;-78
2021/03/21 01:51:39;;;;;;;7.53;5.43;;;7.20;86.80;6.00;102261.00;;;;4935968;28;20043;-78
2021/03/21 01:54:13;;;;;;;8.52;5.10;;;5.60;84.90;6.00;102258.00;;;;4948098;28;20050;-78
2021/03/21 01:56:41;;;;;;;7.50;5.38;;;7.10;86.70;6.00;102248.00;;;;4981777;28;20097;-78
2021/03/21 01:59:29;;;;;;;8.27;5.60;;;7.10;86.50;6.00;102253.00;;;;4977020;28;20050;-78
2021/03/21 02:02:01;;;;;;;7.47;5.07;;;7.10;86.60;5.90;102239.00;;;;4977923;28;20054;-77
2021/03/21 02:04:28;;;;;;;6.85;5.00;;;7.10;86.80;6.00;102246.00;;;;4979082;28;20443;-77
2021/03/21 02:06:59;;;;;;;7.93;5.53;;;7.10;86.50;5.90;102247.00;;;;4969109;28;20039;-77
2021/03/21 02:09:59;;;;;;;11.48;5.80;;;7.00;85.30;5.90;102246.00;;;;4972883;28;20539;-77
2021/03/21 02:12:45;;;;;;;;;;;7.00;86.30;5.80;102242.00;;;;4967678;28;20051;-77
2021/03/21 02:15:44;;;;;;;9.55;6.13;;;7.00;87.70;5.90;102226.00;;;;4966857;28;19972;-77
2021/03/21 02:18:31;;;;;;;11.23;6.57;;;7.00;85.90;5.90;102236.00;;;;4973702;28;20129;-77
2021/03/21 02:21:24;;;;;;;9.48;5.85;;;7.00;86.70;5.90;102229.00;;;;4941278;28;20051;-77
2021/03/21 02:24:23;;;;;;;7.68;5.50;;;7.10;86.70;5.80;102227.00;;;;4956023;28;20072;-77
2021/03/21 02:27:13;;;;;;;8.35;5.57;;;7.00;85.90;5.80;102211.00;;;;4961485;28;20393;-77
2021/03/21 02:29:50;;;;;;;12.18;6.93;;;7.00;87.20;5.80;102213.00;;;;4971499;28;20121;-77
2021/03/21 02:32:27;;;;;;;11.52;6.82;;;7.60;87.80;5.90;102210.00;;;;4956246;28;20098;-77
2021/03/21 02:35:36;;;;;;;9.63;6.40;;;7.00;87.30;5.80;102204.00;;;;4948322;28;20046;-78
2021/03/21 02:38:13;;;;;;;11.38;6.30;;;7.00;87.30;5.80;102211.00;;;;4955286;28;20295;-78
2021/03/21 02:40:54;;;;;;;8.02;6.03;;;7.00;87.10;5.80;102196.00;;;;4960262;28;20045;-77
2021/03/21 02:43:45;;;;;;;11.13;7.60;;;6.70;86.50;5.80;102184.00;;;;4953125;28;20078;-77
2021/03/21 02:46:21;;;;;;;13.23;8.55;;;7.00;87.70;5.80;102182.00;;;;4959736;28;20082;-78
2021/03/21 02:49:13;;;;;;;15.15;9.50;;;7.00;87.70;5.80;102185.00;;;;4976244;28;20058;-78
2021/03/21 02:51:46;;;;;;;11.73;8.45;;;7.00;87.60;5.90;102182.00;;;;4961527;28;20058;-78
2021/03/21 02:54:39;;;;;;;12.80;8.40;;;7.00;87.70;5.90;102175.00;;;;4961327;28;20689;-78
2021/03/21 02:57:21;;;;;;;12.60;8.73;;;7.00;86.80;5.90;102162.00;;;;4977783;28;20047;-78
2021/03/21 02:59:55;;;;;;;14.57;9.98;;;7.00;87.50;5.90;102169.00;;;;4959267;28;20146;-78
2021/03/21 03:02:52;;;;;;;16.67;11.00;;;7.10;87.90;5.90;102156.00;;;;4976994;28;20449;-77
2021/03/21 03:05:31;;;;;;;20.83;13.30;;;7.10;89.00;5.90;102152.00;;;;4960009;28;20053;-77
2021/03/21 03:08:08;;;;;;;23.95;15.80;;;7.10;87.60;5.90;102152.00;;;;4961604;28;20055;-78
2021/03/21 03:10:52;;;;;;;25.05;16.52;;;7.10;87.80;6.00;102152.00;;;;4977187;28;20683;-77
2021/03/21 03:13:34;;;;;;;32.85;20.38;;;7.00;87.30;6.00;102165.00;;;;4960145;28;20074;-78
2021/03/21 03:16:13;;;;;;;34.83;21.08;;;7.10;87.90;5.90;102167.00;;;;4959253;28;20051;-78
2021/03/21 03:19:11;;;;;;;36.58;21.95;;;7.20;88.10;5.90;102167.00;;;;4974549;28;20516;-78
2021/03/21 03:22:03;;;;;;;39.10;22.67;;;7.10;88.30;5.90;102159.00;;;;4975054;28;20038;-79
2021/03/21 03:24:57;;;;;;;42.42;24.35;;;7.00;87.20;5.90;102166.00;;;;4973258;28;20043;-78
2021/03/21 03:27:42;;;;;;;42.17;25.58;;;7.00;87.40;5.90;102170.00;;;;4950978;28;23192;-78
2021/03/21 03:30:23;;;;;;;46.67;26.58;;;7.10;88.20;5.90;102174.00;;;;4972758;28;20472;-78
2021/03/21 03:32:49;;;;;;;46.30;26.75;;;7.10;88.00;5.90;102175.00;;;;4976486;28;20061;-78
2021/03/21 03:35:18;;;;;;;42.60;25.40;;;7.00;87.80;5.90;102171.00;;;;4960737;28;20501;-78
2021/03/21 03:37:44;;;;;;;51.65;28.58;;;7.00;88.40;5.90;102170.00;;;;4960570;28;20046;-77
2021/03/21 03:40:12;;;;;;;44.85;25.85;;;7.00;89.40;5.90;102172.00;;;;4969926;28;20061;-78
2021/03/21 03:43:12;;;;;;;50.97;28.20;;;7.00;88.40;5.90;102177.00;;;;4951075;28;20046;-78
2021/03/21 03:46:37;;;;;;;52.08;27.48;;;7.00;88.50;5.80;102179.00;;;;4957218;28;20527;-78
2021/03/21 03:49:37;;;;;;;52.55;28.40;;;7.00;88.60;5.80;102173.00;;;;4936761;28;20054;-77
2021/03/21 03:52:31;;;;;;;59.17;28.38;;;7.00;88.60;5.80;102185.00;;;;4959087;28;20039;-77
2021/03/21 03:55:22;;;;;;;49.72;26.75;;;7.00;88.60;5.80;102181.00;;;;4959355;28;20042;-77
2021/03/21 03:57:59;;;;;;;60.08;30.20;;;7.00;88.90;5.80;102182.00;;;;4953839;28;20126;-77
2021/03/21 04:01:00;;;;;;;59.63;29.92;;;7.00;88.80;5.80;102169.00;;;;4954622;28;20544;-77
2021/03/21 04:03:56;;;;;;;60.90;29.55;;;6.90;88.60;5.80;102185.00;;;;4958662;28;20278;-76
2021/03/21 04:06:40;;;;;;;68.18;32.33;;;6.90;89.70;5.70;102175.00;;;;4970416;28;20050;-77
2021/03/21 04:09:32;;;;;;;66.32;31.75;;;7.40;89.60;5.70;102179.00;;;;4965035;28;20696;-77
2021/03/21 04:12:12;;;;;;;58.90;31.23;;;6.90;89.30;5.70;102172.00;;;;4957894;28;20098;-76
2021/03/21 04:14:47;;;;;;;59.38;30.60;;;6.90;89.60;5.70;102165.00;;;;4973151;28;20051;-77
2021/03/21 04:17:33;;;;;;;66.03;32.15;;;6.90;89.40;5.70;102168.00;;;;4974945;28;20070;-76
2021/03/21 04:20:26;;;;;;;68.88;33.05;;;6.90;89.00;5.80;102165.00;;;;4953755;28;20158;-75
2021/03/21 04:23:00;;;;;;;68.95;33.25;;;6.90;89.80;5.70;102172.00;;;;4929351;28;20134;-76
2021/03/21 04:25:34;;;;;;;67.53;33.00;;;6.90;89.00;5.80;102158.00;;;;4934057;28;20142;-76
2021/03/21 04:28:34;;;;;;;70.53;33.35;;;6.90;89.90;5.80;102153.00;;;;4967928;28;20065;-76
2021/03/21 04:31:05;;;;;;;64.47;32.03;;;6.90;89.90;5.80;102149.00;;;;4971100;28;20043;-76
2021/03/21 04:33:42;;;;;;;69.55;33.10;;;7.00;90.10;5.80;102156.00;;;;4972455;28;20666;-76
2021/03/21 04:36:35;;;;;;;64.65;32.00;;;6.90;89.90;5.70;102162.00;;;;4957736;28;20054;-76
2021/03/21 04:39:13;;;;;;;64.50;31.98;;;6.90;90.20;5.70;102160.00;;;;4970548;28;20041;-76
2021/03/21 04:41:49;;;;;;;62.33;31.33;;;6.90;90.10;5.70;102161.00;;;;4969055;28;20045;-76
2021/03/21 04:44:23;;;;;;;60.92;31.35;;;6.90;90.10;5.70;102167.00;;;;4956124;28;20251;-76
2021/03/21 04:46:59;;;;;;;58.22;29.65;;;6.90;90.20;5.80;102172.00;;;;4957230;28;20129;-76
2021/03/21 04:49:25;;;;;;;62.25;30.60;;;6.90;90.40;5.80;102165.00;;;;4950345;28;20516;-77
2021/03/21 04:52:12;;;;;;;61.80;31.77;;;7.30;90.30;5.80;102173.00;;;;4953410;28;20149;-75
2021/03/21 04:54:40;;;;;;;58.58;29.63;;;7.00;90.40;5.80;102161.00;;;;4936544;28;20535;-76
2021/03/21 04:57:39;;;;;;;56.92;26.67;;;6.90;90.20;5.80;102161.00;;;;4970918;28;20043;-76
2021/03/21 05:00:12;;;;;;;59.45;29.67;;;6.90;90.40;5.80;102167.00;;;;4961205;28;21138;-76
2021/03/21 05:02:38;;;;;;;54.10;27.55;;;6.90;90.40;5.80;102154.00;;;;4960882;28;20039;-75
2021/03/21 05:05:31;;;;;;;53.75;27.33;;;6.90;89.90;5.80;102162.00;;;;4969254;28;20035;-76
2021/03/21 05:08:23;;;;;;;52.60;27.58;;;6.90;90.30;5.80;102161.00;;;;4960623;28;20050;-76
2021/03/21 05:10:58;;;;;;;50.72;25.45;;;6.90;90.00;5.80;102159.00;;;;4952530;28;20121;-76
2021/03/21 05:13:34;;;;;;;52.03;27.83;;;6.90;90.30;5.80;102159.00;;;;4975926;28;20057;-76
2021/03/21 05:16:17;;;;;;;49.08;26.08;;;6.90;90.40;5.80;102143.00;;;;4976760;28;20043;-75
2021/03/21 05:18:51;;;;;;;44.42;25.08;;;6.90;90.30;5.80;102145.00;;;;4954292;28;20061;-76
2021/03/21 05:21:46;;;;;;;47.95;24.48;;;7.00;90.40;5.80;102139.00;;;;4974686;28;20043;-75
2021/03/21 05:24:55;;;;;;;42.45;23.23;;;7.00;90.00;5.80;102145.00;;;;4952663;28;20093;-76
2021/03/21 05:27:33;;;;;;;43.03;22.73;;;6.90;90.40;5.80;102148.00;;;;4875564;29;20052;-75
2021/03/21 05:30:17;;;;;;;37.00;20.88;;;7.00;90.20;5.90;102147.00;;;;4965434;28;20038;-76
2021/03/21 05:32:50;;;;;;;39.60;21.17;;;7.00;90.80;5.80;102125.00;;;;4959492;28;20489;-76
2021/03/21 05:35:38;;;;;;;40.53;21.75;;;7.00;90.40;5.80;102132.00;;;;4952757;28;20030;-75
2021/03/21 05:38:38;;;;;;;34.85;19.45;;;7.00;90.00;5.90;102143.00;;;;4952300;28;20043;-75
2021/03/21 05:41:59;;;;;;;34.95;19.55;;;7.00;90.40;5.90;102158.00;;;;4963714;28;20049;-75
2021/03/21 05:44:41;;;;;;;37.05;19.75;;;7.00;90.30;5.90;102154.00;;;;4959931;28;20133;-74
2021/03/21 05:47:47;;;;;;;37.72;19.05;;;7.00;89.80;5.90;102155.00;;;;4972950;28;20109;-75
2021/03/21 05:50:59;;;;;;;33.55;18.33;;;7.00;90.20;5.90;102154.00;;;;4971419;28;20059;-76
2021/03/21 05:53:42;;;;;;;35.53;17.88;;;6.60;90.00;5.90;102170.00;;;;4959460;28;20497;-77
2021/03/21 05:56:58;;;;;;;28.05;16.48;;;7.00;90.20;5.90;102177.00;;;;4958439;28;20082;-77
2021/03/21 05:59:54;;;;;;;27.08;14.20;;;7.00;90.00;5.90;102180.00;;;;4946545;28;20053;-77
2021/03/21 06:02:45;;;;;;;28.50;15.10;;;7.00;90.40;5.90;102183.00;;;;4956670;28;20049;-77
2021/03/21 06:05:36;;;;;;;27.50;14.48;;;7.00;90.00;5.90;102170.00;;;;4954010;28;20058;-77
2021/03/21 06:08:48;;;;;;;26.65;14.40;;;7.00;90.30;6.00;102160.00;;;;4973271;28;20038;-76
2021/03/21 06:11:47;;;;;;;24.20;13.15;;;7.10;89.80;6.00;102163.00;;;;4972904;28;20039;-82
2021/03/21 06:15:32;;;;;;;25.13;12.40;;;7.10;90.10;6.00;102171.00;;;;4956742;28;20038;-80
2021/03/21 06:18:22;;;;;;;21.27;10.30;;;7.10;90.00;6.00;102170.00;;;;4896100;29;20566;-81
2021/03/21 06:21:31;;;;;;;18.10;8.85;;;7.10;90.00;6.00;102179.00;;;;4957872;28;20054;-82
2021/03/21 06:24:28;;;;;;;16.55;7.90;;;7.20;89.80;6.00;102171.00;;;;4952267;28;20042;-82
2021/03/21 06:27:12;;;;;;;14.60;7.55;;;7.70;89.00;6.10;102173.00;;;;4950855;28;20150;-82
2021/03/21 06:30:38;;;;;;;22.08;7.40;;;7.20;89.80;6.00;102180.00;;;;4970918;28;20050;-82
2021/03/21 06:33:23;;;;;;;9.73;4.95;;;7.20;89.70;6.10;102182.00;;;;4943077;28;20045;-81
2021/03/21 06:36:25;;;;;;;14.63;6.53;;;7.20;89.30;6.00;102178.00;;;;4958641;28;20043;-80
2021/03/21 06:39:15;;;;;;;15.10;5.60;;;7.60;89.70;6.00;102188.00;;;;4980035;28;20089;-83
2021/03/21 06:42:38;;;;;;;17.55;6.25;;;7.20;89.30;6.00;102181.00;;;;4958125;28;20573;-81
2021/03/21 06:45:43;;;;;;;15.13;7.15;;;7.20;89.60;6.00;102185.00;;;;4965277;28;20058;-82
2021/03/21 06:48:43;;;;;;;16.20;9.30;;;7.10;89.90;6.10;102176.00;;;;4978530;28;20057;-81
2021/03/21 06:51:17;;;;;;;16.08;6.10;;;7.10;88.60;6.10;102194.00;;;;4959905;28;20129;-81
2021/03/21 06:54:09;;;;;;;14.07;4.63;;;7.20;88.90;6.20;102171.00;;;;4957484;28;20057;-80
2021/03/21 06:56:55;;;;;;;18.27;6.00;;;7.20;88.20;6.20;102196.00;;;;4962064;28;20051;-79
2021/03/21 06:59:48;;;;;;;9.30;3.20;;;7.30;89.10;6.20;102197.00;;;;4960170;28;20145;-81
2021/03/21 07:03:01;;;;;;;10.57;4.28;;;7.30;88.80;6.20;102212.00;;;;4962031;28;20125;-82
2021/03/21 07:06:11;;;;;;;13.75;2.53;;;7.30;87.70;6.20;102212.00;;;;4970533;28;20054;-78
2021/03/21 07:09:13;;;;;;;11.35;2.72;;;7.40;88.80;6.20;102204.00;;;;4957530;28;20122;-80
2021/03/21 07:12:20;;;;;;;8.50;2.72;;;7.30;88.20;6.20;102230.00;;;;4959381;28;20308;-82
2021/03/21 07:15:16;;;;;;;8.85;2.60;;;8.30;89.40;6.20;102214.00;;;;4958157;28;20063;-81
2021/03/21 07:17:54;;;;;;;8.73;2.50;;;;;6.20;102201.00;;;;4957338;28;20098;-80
2021/03/21 07:21:02;;;;;;;8.18;1.98;;;7.30;87.90;6.20;102203.00;;;;4958735;28;20102;-81
2021/03/21 07:23:58;;;;;;;12.13;2.70;;;7.30;88.70;6.20;102209.00;;;;4956366;28;20047;-81
2021/03/21 07:27:24;;;;;;;7.20;2.22;;;7.30;88.10;6.20;102216.00;;;;4973602;28;20050;-81
2021/03/21 07:30:10;;;;;;;10.10;2.38;;;7.30;88.50;6.30;102201.00;;;;4960306;28;20062;-78
2021/03/21 07:33:02;;;;;;;8.18;1.50;;;7.30;86.70;6.30;102210.00;;;;4958390;28;20544;-80
2021/03/21 07:35:52;;;;;;;6.05;1.75;;;7.30;87.30;6.30;102209.00;;;;4963777;28;20042;-80
2021/03/21 07:38:54;;;;;;;9.38;1.73;;;7.40;87.20;6.40;102205.00;;;;4976629;28;20126;-80
2021/03/21 07:42:32;;;;;;;9.45;1.90;;;7.40;86.90;6.40;102210.00;;;;4978079;28;20145;-78
2021/03/21 07:45:41;;;;;;;8.20;1.60;;;6.10;85.50;6.40;102222.00;;;;4940461;28;20066;-79
2021/03/21 07:48:47;;;;;;;7.40;1.70;;;7.50;86.60;6.40;102215.00;;;;4971206;28;20049;-80
2021/03/21 07:51:41;;;;;;;8.48;2.05;;;7.50;85.20;6.40;102230.00;;;;4973452;28;20054;-79
2021/03/21 07:54:35;;;;;;;15.13;2.40;;;7.50;85.90;6.50;102221.00;;;;4962817;28;20121;-78
2021/03/21 07:57:42;;;;;;;11.60;2.28;;;7.50;84.80;6.50;102233.00;;;;4956764;28;20077;-81
2021/03/21 08:00:11;;;;;;;10.90;3.13;;;7.60;85.30;6.60;102233.00;;;;4959083;28;20082;-80
2021/03/21 08:02:38;;;;;;;6.80;1.60;;;8.00;86.00;6.60;102208.00;;;;4960164;28;20650;-81
2021/03/21 08:05:14;;;;;;;10.73;1.92;;;7.60;85.50;6.60;102214.00;;;;4976198;28;20046;-81
2021/03/21 08:07:44;;;;;;;13.32;2.10;;;7.60;85.60;6.60;102210.00;;;;4972744;28;20109;-81
2021/03/21 08:10:39;;;;;;;10.80;2.00;;;7.60;83.80;6.60;102209.00;;;;4955675;28;20109;-80
2021/03/21 08:13:40;;;;;;;12.55;1.88;;;7.70;84.40;6.60;102204.00;;;;4964535;28;20070;-81
2021/03/21 08:16:15;;;;;;;9.73;1.60;;;7.70;83.80;6.70;102212.00;;;;4959517;28;20045;-79
2021/03/21 08:18:46;;;;;;;13.93;2.20;;;7.70;81.70;6.70;102193.00;;;;4961425;28;20104;-79
2021/03/21 08:21:29;;;;;;;10.80;1.80;;;7.80;83.80;6.80;102187.00;;;;4958938;28;20401;-81
2021/03/21 08:24:11;;;;;;;15.55;2.35;;;7.80;79.30;6.80;102182.00;;;;4958316;28;20050;-79
2021/03/21 08:26:37;;;;;;;13.88;2.08;;;7.80;81.30;6.80;102198.00;;;;4961283;28;20047;-79
2021/03/21 08:29:21;;;;;;;12.33;1.80;;;7.80;80.60;6.90;102202.00;;;;4963991;28;20035;-80
2021/03/21 08:32:12;;;;;;;15.68;2.28;;;7.90;81.10;6.90;102204.00;;;;4974256;28;20656;-80
2021/03/21 08:34:47;;;;;;;10.65;1.88;;;7.90;78.20;6.90;102214.00;;;;4989774;28;20155;-80
2021/03/21 08:37:41;;;;;;;10.10;1.95;;;7.90;80.60;6.90;102228.00;;;;4972419;28;20117;-81
2021/03/21 08:40:22;;;;;;;12.45;2.10;;;8.00;79.30;7.00;102228.00;;;;4981082;28;20050;-82
2021/03/21 08:42:54;;;;;;;11.75;1.58;;;8.00;79.90;7.00;102236.00;;;;4983002;28;20053;-80
2021/03/21 08:45:21;;;;;;;13.65;2.60;;;8.00;79.40;7.10;102242.00;;;;4997034;28;20047;-81
2021/03/21 08:48:14;;;;;;;12.43;2.00;;;8.10;78.30;7.10;102242.00;;;;4978405;28;20043;-83
2021/03/21 08:50:46;;;;;;;20.85;2.65;;;8.00;76.40;7.10;102235.00;;;;4993714;28;20129;-79
2021/03/21 08:53:57;;;;;;;14.18;2.30;;;8.00;77.70;7.10;102242.00;;;;4956829;28;20047;-81
2021/03/21 08:56:36;;;;;;;12.02;2.15;;;8.00;75.40;7.10;102251.00;;;;4973456;28;20051;-82
2021/03/21 08:59:26;;;;;;;18.70;2.97;;;8.10;78.50;7.10;102254.00;;;;4969691;28;20121;-81
2021/03/21 09:02:14;;;;;;;15.32;2.25;;;8.10;78.30;7.20;102263.00;;;;4983885;28;20042;-81
2021/03/21 09:05:08;;;;;;;14.10;2.42;;;8.10;78.40;7.20;102266.00;;;;4966426;28;20137;-82
2021/03/21 09:08:03;;;;;;;14.40;2.63;;;8.20;78.20;7.10;102262.00;;;;4967150;28;20043;-81
2021/03/21 09:10:35;;;;;;;20.15;3.33;;;8.20;74.70;7.10;102263.00;;;;4961872;28;20125;-82
2021/03/21 09:13:14;;;;;;;16.92;2.55;;;8.20;78.20;7.10;102261.00;;;;4978618;28;20051;-82
2021/03/21 09:15:47;;;;;;;21.17;2.92;;;8.10;75.90;7.00;102263.00;;;;4976167;28;20042;-82
2021/03/21 09:18:22;;;;;;;27.95;2.75;;;8.00;75.00;7.10;102276.00;;;;4966719;28;20053;-82
2021/03/21 09:21:15;;;;;;;22.52;3.30;;;8.10;76.80;7.10;102259.00;;;;4963155;28;20074;-82
2021/03/21 09:23:58;;;;;;;17.73;2.67;;;8.10;73.20;7.10;102259.00;;;;4977656;28;20038;-81
2021/03/21 09:26:33;;;;;;;13.93;2.60;;;8.10;75.90;7.20;102263.00;;;;4960316;28;20132;-81
2021/03/21 09:29:15;;;;;;;19.90;3.00;;;8.20;76.50;7.20;102266.00;;;;4963929;28;20104;-82
2021/03/21 09:31:42;;;;;;;18.80;2.70;;;9.00;74.50;7.20;102262.00;;;;4977899;28;20035;-80
2021/03/21 09:34:31;;;;;;;16.00;3.17;;;8.10;72.60;7.20;102263.00;;;;4965420;28;20049;-81
2021/03/21 09:37:07;;;;;;;20.50;3.47;;;8.10;71.60;7.30;102269.00;;;;4978221;28;20313;-82
2021/03/21 09:39:36;;;;;;;25.60;3.55;;;8.20;75.10;7.30;102268.00;;;;4978376;28;20051;-83
2021/03/21 09:42:14;;;;;;;20.48;3.53;;;8.60;73.90;7.30;102264.00;;;;4978821;28;20050;-82
2021/03/21 09:44:47;;;;;;;20.38;2.90;;;8.30;73.30;7.30;102262.00;;;;4978228;28;20055;-82
2021/03/21 09:47:42;;;;;;;18.58;3.30;;;8.30;74.70;7.30;102264.00;;;;4964923;28;20567;-82
2021/03/21 09:50:29;;;;;;;13.48;3.30;;;8.30;73.70;7.30;102267.00;;;;4975782;28;20039;-81
2021/03/21 09:53:40;;;;;;;17.80;2.90;;;8.30;73.60;7.30;102290.00;;;;4963013;28;20518;-82
2021/03/21 09:56:32;;;;;;;20.65;3.28;;;8.20;71.00;7.30;102284.00;;;;4960863;28;20054;-83
2021/03/21 09:59:09;;;;;;;22.85;3.30;;;8.20;72.20;7.30;102296.00;;;;4963894;28;20532;-81
2021/03/21 10:01:49;;;;;;;15.40;2.50;;;8.30;71.60;7.30;102304.00;;;;4961589;28;20062;-82
2021/03/21 10:04:44;;;;;;;22.75;3.55;;;8.60;73.10;7.30;102307.00;;;;4977161;28;20447;-82
2021/03/21 10:07:33;;;;;;;22.70;3.05;;;7.60;71.70;7.40;102306.00;;;;4959102;28;20137;-80
2021/03/21 10:10:07;;;;;;;17.20;2.90;;;8.30;69.60;7.40;102314.00;;;;4973597;28;20055;-80
2021/03/21 10:12:40;;;;;;;24.40;3.38;;;8.30;71.30;7.40;102306.00;;;;4978515;28;20039;-81
2021/03/21 10:15:24;;;;;;;30.58;3.90;;;8.40;71.80;7.50;102311.00;;;;4975853;28;20051;-80
2021/03/21 10:17:59;;;;;;;29.15;3.92;;;8.40;70.10;7.50;102313.00;;;;4986540;28;20062;-82
2021/03/21 10:21:06;;;;;;;26.33;3.70;;;8.40;71.10;7.50;102305.00;;;;4966867;28;20114;-80
2021/03/21 10:23:51;;;;;;;29.88;3.95;;;8.40;66.50;7.50;102310.00;;;;4981120;28;20043;-80
2021/03/21 10:26:26;;;;;;;20.15;3.65;;;8.40;70.80;7.60;102310.00;;;;4969225;28;20042;-79
2021/03/21 10:29:17;;;;;;;29.13;4.57;;;8.50;69.80;7.80;102321.00;;;;4977387;28;20070;-80
2021/03/21 10:31:43;;;;;;;22.58;3.53;;;8.60;70.00;7.80;102317.00;;;;4938491;28;20061;-80
2021/03/21 10:34:09;;;;;;;20.75;3.03;;;8.70;69.10;8.00;102319.00;;;;4975403;28;21109;-80
2021/03/21 10:36:37;;;;;;;23.90;3.80;;;8.80;68.90;7.90;102333.00;;;;4960880;28;20137;-80
2021/03/21 10:39:09;;;;;;;29.88;5.03;;;8.80;69.60;7.80;102331.00;;;;4962283;28;20043;-80
2021/03/21 10:42:04;;;;;;;22.55;4.13;;;8.80;68.70;7.70;102317.00;;;;4958414;28;20169;-80
2021/03/21 10:44:30;;;;;;;27.67;4.40;;;8.70;67.10;7.70;102309.00;;;;4970459;28;20051;-81
2021/03/21 10:47:20;;;;;;;32.58;4.68;;;8.60;67.60;7.80;102315.00;;;;4971333;28;20461;-80
2021/03/21 10:50:00;;;;;;;28.67;4.32;;;8.70;64.90;7.80;102331.00;;;;4954233;28;20054;-79
2021/03/21 10:52:44;;;;;;;17.40;4.18;;;8.60;66.70;7.90;102321.00;;;;4970718;28;20051;-79
2021/03/21 10:55:14;;;;;;;28.90;4.05;;;8.90;68.00;8.00;102311.00;;;;4954414;28;20196;-80
2021/03/21 10:57:54;;;;;;;28.15;5.35;;;9.60;69.00;8.00;102308.00;;;;4964947;28;20169;-80
2021/03/21 11:00:26;;;;;;;25.75;4.20;;;9.00;65.80;8.10;102327.00;;;;4956090;28;20985;-80
2021/03/21 11:02:57;;;;;;;27.73;4.28;;;9.00;68.60;8.10;102321.00;;;;4970555;28;20042;-80
2021/03/21 11:05:32;;;;;;;29.52;4.00;;;9.90;69.50;8.00;102312.00;;;;4951298;28;20046;-81
2021/03/21 11:08:27;;;;;;;21.50;4.07;;;9.00;67.90;8.00;102315.00;;;;4956084;28;20047;-80
2021/03/21 11:10:58;;;;;;;29.52;4.50;;;8.90;66.10;8.00;102317.00;;;;4972467;28;20590;-81
2021/03/21 11:13:35;;;;;;;32.08;4.97;;;9.00;68.00;8.10;102304.00;;;;4970012;28;20496;-79
2021/03/21 11:16:19;;;;;;;23.15;4.38;;;9.50;67.70;8.00;102321.00;;;;4955638;28;20057;-80
2021/03/21 11:19:02;;;;;;;27.05;4.05;;;9.00;66.20;8.10;102307.00;;;;4951629;28;20059;-79
2021/03/21 11:21:33;;;;;;;27.90;3.92;;;9.00;67.40;8.20;102303.00;;;;4953830;28;20035;-80
2021/03/21 11:24:21;;;;;;;31.90;4.95;;;9.10;64.30;8.30;102291.00;;;;4955698;28;20441;-80
2021/03/21 11:26:48;;;;;;;17.92;3.40;;;9.20;66.60;8.30;102289.00;;;;4968963;28;21014;-81
2021/03/21 11:29:33;;;;;;;22.48;3.90;;;9.30;66.70;8.40;102278.00;;;;4968521;28;20047;-80
2021/03/21 11:32:26;;;;;;;22.40;3.83;;;9.60;66.30;8.40;102311.00;;;;4954266;28;20054;-80
2021/03/21 11:35:12;;;;;;;23.70;3.80;;;9.40;64.00;8.40;102298.00;;;;4956226;28;20097;-79
2021/03/21 11:37:42;;;;;;;25.08;4.18;;;9.30;65.90;8.50;102292.00;;;;4955246;28;20449;-81
2021/03/21 11:40:37;;;;;;;25.77;3.90;;;9.40;65.70;8.60;102311.00;;;;4956906;28;20049;-80
2021/03/21 11:43:29;;;;;;;22.67;3.72;;;9.50;66.90;8.50;102305.00;;;;4956042;28;20050;-80
2021/03/21 11:46:24;;;;;;;24.17;4.93;;;9.50;65.30;8.60;102304.00;;;;4954973;28;20065;-79
2021/03/21 11:48:51;;;;;;;18.75;3.47;;;9.50;63.60;8.60;102315.00;;;;4957598;28;20117;-80
2021/03/21 11:51:17;;;;;;;23.10;4.07;;;;;8.50;102315.00;;;;4955388;28;20038;-79
2021/03/21 11:53:47;;;;;;;24.88;5.43;;;9.90;64.10;8.40;102306.00;;;;4957859;28;20050;-80
2021/03/21 11:56:41;;;;;;;22.98;3.63;;;9.40;64.40;8.50;102287.00;;;;4972581;28;20155;-78
2021/03/21 11:59:17;;;;;;;24.90;4.80;;;10.20;66.00;8.50;102292.00;;;;4956171;28;20062;-80
2021/03/21 12:01:48;;;;;;;22.50;4.55;;;9.40;67.10;8.50;102307.00;;;;4968577;28;20050;-80
2021/03/21 12:04:38;;;;;;;27.95;4.38;;;9.40;62.00;8.40;102295.00;;;;4954965;28;20090;-80
2021/03/21 12:07:04;;;;;;;23.05;3.72;;;9.40;63.90;8.60;102312.00;;;;4969623;28;20074;-80